Terminal Aerodrome Forecast
Issued by NWS Springfield, MO

Home | Current Version | Previous Version | Text Only | Print | Product List | Glossary Off
Versions: 1 2 3 4 5 6 7 8 9 10 11 12 13 14 15 16 17 18 19 20 21

000
FTUS43 KSGF 172300
TAFSGF
TAF
KSGF 172320Z 1800/1824 17006KT P6SM SCT040 BKN250
     FM180600 15007KT P6SM VCSH BKN040 OVC100 PROB30 1809/1814 5SM
      -TSRA BR BKN040CB
     FM181500 17008KT P6SM VCTS BKN035CB OVC060 PROB30 1815/1818 5SM
      -TSRA BR BKN040CB=

USA.gov is the U.S. government's official web portal to all federal, state and local government web resources and services.